MET'MAP v2.0
soon released !

Expected late october,
this new version will be
more efficient, smarter,
and hosted on a brand new
server x3 powerfull...
...and still free !


Not compatible ?
Try the mobile version !

LOG IN : | Subscribe | Disclaimer | Who is Orbifly ? |
ICAO code :

TAF - ESGJ Jönköping Airport - 01 Jun 2020 22:14 UTC - Data Source NOAA   


- Airport Elevation : 741 ft
- IATA code : JKG
- No reported NOTAMs.


ESGJ - Jönköping Airport

Latest METAR recorded : 2015/08/11 08:20 ESGJ 110820Z 18004KT 9999 FEW030 BKN051 BKN092 16/14 Q1019
TAF TAF ESGJ
Valid from the 01 at 18:00 until the 02 at 01:00 UTC


011730Z 0118/0201 VRB02KT CAVOK

Source NOAA


MET'MAP, your aeronautical weather chart ! - Copyright ORBIFLY December 2007

Programming & Development : Alexandra Zaïnal
Co-Developer : Marc-Olivier Méhu
Technical & hardware support : Manuel Goepfert
Concept & Financing : Baudouin d'Aumeries